Ava, New York
Current Conditions -  °F | °C
As of 8:53 AM on Monday 26 Jan 2015 (Local Time) from KRME Reporting Station
Overcast Overcast  
Wind Chill: -3°   Ceiling: 6500
Heat Index:   Visibility: 10mi
Dew Point: -3°   Wind: 7mph
Humidity: 61%   Direction: 110°ESE
Pressure: 30.07"   Gusts: NA
Location:  43.42°N, 75.48°W
Report Text: KRME 261353Z 11006KT 10SM OVC065 M13/M19 A3007 RMK AO2 SLP190 T11331194
Loading
Personal Weather Stations






























Interactive Weather Map New forecast layout! Learn more

10-Day Weather Forecast

Advertisements
Track Severe Weather on mobile